createdAt,value
2018-05-18T00:00:00.231Z,101541.34
2018-05-18T00:02:03.772Z,101531.87
2018-05-18T00:04:07.104Z,101530.50
2018-05-18T00:06:10.458Z,101532.38
2018-05-18T00:08:13.833Z,101535.16
2018-05-18T00:10:18.159Z,101530.23
2018-05-18T00:12:21.527Z,101534.89
2018-05-18T00:14:24.952Z,101532.37
2018-05-18T00:16:28.284Z,101532.71
2018-05-18T00:18:31.593Z,101532.91
2018-05-18T00:20:36.004Z,101529.81
2018-05-18T00:22:39.363Z,101525.23
2018-05-18T00:24:42.718Z,101526.53
2018-05-18T00:26:46.152Z,101525.37
2018-05-18T00:28:49.674Z,101524.50
2018-05-18T00:30:53.084Z,101526.77
2018-05-18T00:32:56.515Z,101530.94
2018-05-18T00:34:59.889Z,101528.60
2018-05-18T00:37:03.220Z,101535.80
2018-05-18T00:39:06.559Z,101536.46
2018-05-18T00:41:09.922Z,101532.23
2018-05-18T00:43:13.325Z,101527.66
2018-05-18T00:45:18.013Z,101533.92
2018-05-18T00:47:21.475Z,101535.23
2018-05-18T00:49:24.819Z,101526.48
2018-05-18T00:51:28.233Z,101531.87
2018-05-18T00:53:31.598Z,101532.63
2018-05-18T00:55:44.378Z,101529.67
2018-05-18T00:57:47.826Z,101532.23
2018-05-18T00:59:51.198Z,101531.08
2018-05-18T01:01:54.647Z,101530.06
2018-05-18T01:03:57.978Z,101528.84
2018-05-18T01:06:01.338Z,101530.88
2018-05-18T01:08:04.802Z,101530.43
2018-05-18T01:10:08.198Z,101528.97
2018-05-18T01:12:11.639Z,101526.27
2018-05-18T01:14:15.206Z,101524.87
2018-05-18T01:16:18.802Z,101521.69
2018-05-18T01:18:22.214Z,101531.86
2018-05-18T01:20:25.658Z,101532.97
2018-05-18T01:22:29.070Z,101529.37
2018-05-18T01:24:32.455Z,101530.81
2018-05-18T01:26:35.792Z,101526.23
2018-05-18T01:28:39.210Z,101523.28
2018-05-18T01:30:42.596Z,101524.80
2018-05-18T01:32:45.993Z,101519.40
2018-05-18T01:34:49.404Z,101531.40
2018-05-18T01:36:52.949Z,101522.32
2018-05-18T01:38:56.322Z,101530.38
2018-05-18T01:40:59.713Z,101529.19
2018-05-18T01:43:03.120Z,101529.41
2018-05-18T01:45:06.449Z,101530.23
2018-05-18T01:47:09.827Z,101521.50
2018-05-18T01:49:13.231Z,101522.30
2018-05-18T01:51:16.578Z,101522.05
2018-05-18T01:53:19.952Z,101518.91
2018-05-18T01:55:23.337Z,101528.28
2018-05-18T01:57:26.743Z,101519.73
2018-05-18T01:59:30.159Z,101524.72
2018-05-18T02:01:33.529Z,101523.02
2018-05-18T02:03:36.899Z,101514.00
2018-05-18T02:05:40.279Z,101519.52
2018-05-18T02:07:43.615Z,101517.04
2018-05-18T02:09:46.965Z,101521.01
2018-05-18T02:11:50.323Z,101526.62
2018-05-18T02:13:53.665Z,101527.66
2018-05-18T02:15:57.009Z,101533.84
2018-05-18T02:18:00.451Z,101525.23
2018-05-18T02:20:03.864Z,101523.25
2018-05-18T02:22:07.180Z,101531.55
2018-05-18T02:24:10.584Z,101529.43
2018-05-18T02:26:14.030Z,101530.66
2018-05-18T02:28:17.526Z,101529.16
2018-05-18T02:30:20.960Z,101532.42
2018-05-18T02:32:24.383Z,101526.47
2018-05-18T02:34:27.780Z,101534.77
2018-05-18T02:36:31.178Z,101532.10
2018-05-18T02:38:34.546Z,101529.23
2018-05-18T02:40:38.108Z,101535.98
2018-05-18T02:42:41.496Z,101533.38
2018-05-18T02:44:45.614Z,101534.28
2018-05-18T02:46:49.046Z,101528.37
2018-05-18T02:48:52.398Z,101534.19
2018-05-18T02:50:55.842Z,101530.55
2018-05-18T02:52:59.239Z,101525.87
2018-05-18T02:55:02.647Z,101529.41
2018-05-18T02:57:05.992Z,101525.77
2018-05-18T02:59:09.371Z,101530.50
2018-05-18T03:01:12.744Z,101528.95
2018-05-18T03:03:16.844Z,101533.57
2018-05-18T03:05:20.988Z,101530.53
2018-05-18T03:07:24.444Z,101536.50
2018-05-18T03:09:28.541Z,101530.05
2018-05-18T03:11:31.876Z,101526.50
2018-05-18T03:13:35.250Z,101537.71
2018-05-18T03:15:38.607Z,101519.97
2018-05-18T03:17:41.936Z,101527.73
2018-05-18T03:19:45.307Z,101532.76
2018-05-18T03:21:49.493Z,101530.44
2018-05-18T03:23:52.835Z,101532.39
2018-05-18T03:25:56.428Z,101523.39
2018-05-18T03:27:59.750Z,101532.59
2018-05-18T03:30:03.079Z,101534.92
2018-05-18T03:32:06.497Z,101531.38
2018-05-18T03:34:09.934Z,101539.29
2018-05-18T03:36:13.250Z,101529.43
2018-05-18T03:38:16.772Z,101532.79
2018-05-18T03:40:20.871Z,101533.94
2018-05-18T03:42:24.200Z,101527.03
2018-05-18T03:44:27.578Z,101524.95
2018-05-18T03:46:30.923Z,101525.91
2018-05-18T03:48:34.264Z,101533.08
2018-05-18T03:50:38.370Z,101536.16
2018-05-18T03:52:41.700Z,101539.68
2018-05-18T03:54:45.003Z,101544.67
2018-05-18T03:56:48.345Z,101542.83
2018-05-18T03:58:51.755Z,101537.72
2018-05-18T04:00:55.096Z,101547.81
2018-05-18T04:03:16.049Z,101540.44
2018-05-18T04:05:36.931Z,101556.63
2018-05-18T04:07:58.506Z,101557.47
2018-05-18T04:10:01.856Z,101560.52
2018-05-18T04:12:05.962Z,101560.47
2018-05-18T04:14:09.371Z,101560.37
2018-05-18T04:16:12.735Z,101561.70
2018-05-18T04:18:16.152Z,101559.24
2018-05-18T04:20:19.894Z,101559.77
2018-05-18T04:22:23.401Z,101561.41
2018-05-18T04:24:27.940Z,101556.28
2018-05-18T04:26:31.347Z,101562.18
2018-05-18T04:28:36.023Z,101567.16
2018-05-18T04:30:39.587Z,101566.61
2018-05-18T04:32:42.925Z,101575.08
2018-05-18T04:34:46.315Z,101577.98
2018-05-18T04:36:49.631Z,101579.20
2018-05-18T04:38:52.969Z,101563.20
2018-05-18T04:40:56.326Z,101572.83
2018-05-18T04:42:59.761Z,101564.12
2018-05-18T04:45:03.246Z,101566.37
2018-05-18T04:47:07.011Z,101570.57
2018-05-18T04:49:10.390Z,101573.55
2018-05-18T04:51:13.916Z,101576.52
2018-05-18T04:53:17.504Z,101574.81
2018-05-18T04:55:21.733Z,101578.73
2018-05-18T04:57:25.240Z,101585.52
2018-05-18T04:59:28.622Z,101578.48
2018-05-18T05:01:32.571Z,101585.31
2018-05-18T05:03:35.952Z,101589.89
2018-05-18T05:05:39.463Z,101577.23
2018-05-18T05:07:45.211Z,101584.97
2018-05-18T05:09:48.913Z,101587.57
2018-05-18T05:11:52.268Z,101591.48
2018-05-18T05:13:55.923Z,101589.89
2018-05-18T05:15:59.358Z,101598.20
2018-05-18T05:18:02.668Z,101597.09
2018-05-18T05:20:06.118Z,101598.53
2018-05-18T05:22:10.268Z,101607.81
2018-05-18T05:24:13.624Z,101590.50
2018-05-18T05:26:17.872Z,101599.61
2018-05-18T05:28:21.215Z,101596.60
2018-05-18T05:30:24.918Z,101602.79
2018-05-18T05:32:28.366Z,101604.42
2018-05-18T05:34:33.068Z,101595.64
2018-05-18T05:36:36.521Z,101609.47
2018-05-18T05:38:55.587Z,101610.44
2018-05-18T05:40:59.236Z,101614.22
2018-05-18T05:43:02.609Z,101612.08
2018-05-18T05:45:05.919Z,101606.17
2018-05-18T05:47:09.598Z,101605.01
2018-05-18T05:49:13.037Z,101614.39
2018-05-18T05:51:16.478Z,101609.40
2018-05-18T05:53:20.562Z,101619.58
2018-05-18T05:55:23.949Z,101614.89
2018-05-18T05:57:27.326Z,101599.36
2018-05-18T05:59:30.758Z,101612.77
2018-05-18T06:01:34.303Z,101609.09
2018-05-18T06:03:37.731Z,101612.73
2018-05-18T06:05:41.242Z,101622.77
2018-05-18T06:07:45.423Z,101620.91
2018-05-18T06:09:48.862Z,101617.81
2018-05-18T06:11:52.629Z,101627.81
2018-05-18T06:13:56.259Z,101620.16
2018-05-18T06:15:59.887Z,101618.92
2018-05-18T06:18:03.736Z,101627.81
2018-05-18T06:20:07.374Z,101622.38
2018-05-18T06:22:11.071Z,101613.33
2018-05-18T06:24:14.536Z,101619.42
2018-05-18T06:26:18.212Z,101624.65
2018-05-18T06:28:21.629Z,101635.62
2018-05-18T06:30:25.075Z,101640.14
2018-05-18T06:32:28.495Z,101644.54
2018-05-18T06:34:31.872Z,101641.78
2018-05-18T06:36:35.278Z,101643.13
2018-05-18T06:38:38.691Z,101642.78
2018-05-18T06:40:42.024Z,101645.62
2018-05-18T06:42:45.443Z,101639.16
2018-05-18T06:44:48.937Z,101645.05
2018-05-18T06:46:52.815Z,101644.86
2018-05-18T06:48:57.147Z,101647.09
2018-05-18T06:51:00.635Z,101637.59
2018-05-18T06:53:04.058Z,101647.09
2018-05-18T06:55:07.501Z,101639.21
2018-05-18T06:57:10.891Z,101638.92
2018-05-18T06:59:14.460Z,101640.56
2018-05-18T07:01:17.982Z,101635.88
2018-05-18T07:03:22.249Z,101639.91
2018-05-18T07:05:25.684Z,101634.46
2018-05-18T07:07:29.926Z,101623.37
2018-05-18T07:09:33.392Z,101632.39
2018-05-18T07:11:36.971Z,101634.33
2018-05-18T07:13:40.390Z,101626.89
2018-05-18T07:15:43.788Z,101627.67
2018-05-18T07:17:47.896Z,101635.98
2018-05-18T07:19:51.526Z,101626.56
2018-05-18T07:21:55.113Z,101627.30
2018-05-18T07:23:58.559Z,101635.99
2018-05-18T07:26:02.298Z,101629.26
2018-05-18T07:28:06.488Z,101627.36
2018-05-18T07:30:10.633Z,101644.30
2018-05-18T07:32:14.336Z,101637.95
2018-05-18T07:34:18.253Z,101639.52
2018-05-18T07:36:21.626Z,101637.52
2018-05-18T07:38:25.191Z,101637.02
2018-05-18T07:40:28.757Z,101646.97
2018-05-18T07:42:33.395Z,101635.45
2018-05-18T07:44:37.081Z,101646.74
2018-05-18T07:46:40.605Z,101650.52
2018-05-18T07:48:44.204Z,101639.73
2018-05-18T07:50:48.081Z,101637.02
2018-05-18T07:52:52.173Z,101646.78
2018-05-18T07:54:55.633Z,101649.53
2018-05-18T07:56:59.894Z,101648.74
2018-05-18T07:59:03.562Z,101638.55
2018-05-18T08:01:07.160Z,101638.36
2018-05-18T08:03:10.684Z,101636.78
2018-05-18T08:05:14.160Z,101642.25
2018-05-18T08:07:17.737Z,101646.66
2018-05-18T08:09:21.131Z,101643.20
2018-05-18T08:11:24.845Z,101646.86
2018-05-18T08:13:28.525Z,101641.81
2018-05-18T08:15:31.963Z,101657.75
2018-05-18T08:17:35.839Z,101646.44
2018-05-18T08:19:39.691Z,101648.66
2018-05-18T08:21:43.149Z,101640.16
2018-05-18T08:23:47.881Z,101649.85
2018-05-18T08:25:52.273Z,101650.73
2018-05-18T08:27:55.749Z,101646.16
2018-05-18T08:30:00.318Z,101654.90
2018-05-18T08:32:04.117Z,101646.18
2018-05-18T08:34:07.689Z,101644.38
2018-05-18T08:36:11.168Z,101639.66
2018-05-18T08:38:14.829Z,101642.17
2018-05-18T08:40:18.497Z,101644.08
2018-05-18T08:42:21.899Z,101636.86
2018-05-18T08:44:26.113Z,101605.24
2018-05-18T08:46:29.797Z,101624.13
2018-05-18T08:48:33.211Z,101624.32
2018-05-18T08:50:36.626Z,101645.00
2018-05-18T08:52:40.149Z,101613.11
2018-05-18T08:54:43.820Z,101638.28
2018-05-18T08:56:47.347Z,101631.25
2018-05-18T08:58:50.736Z,101643.43
2018-05-18T09:00:54.130Z,101630.28
2018-05-18T09:02:57.509Z,101607.84
2018-05-18T09:05:02.903Z,101617.35
2018-05-18T09:07:06.667Z,101634.66
2018-05-18T09:09:11.684Z,101637.08
2018-05-18T09:11:17.569Z,101640.62
2018-05-18T09:13:21.812Z,101632.05
2018-05-18T09:15:26.226Z,101594.95
2018-05-18T09:17:29.972Z,101638.92
2018-05-18T09:19:33.361Z,101617.53
2018-05-18T09:21:36.718Z,101640.05
2018-05-18T09:23:41.155Z,101642.28
2018-05-18T09:25:46.065Z,101641.89
2018-05-18T09:27:49.477Z,101627.63
2018-05-18T09:29:52.818Z,101627.58
2018-05-18T09:31:57.081Z,101640.42
2018-05-18T09:34:00.675Z,101629.80
2018-05-18T09:36:03.944Z,101632.19
2018-05-18T09:38:08.072Z,101653.66
2018-05-18T09:40:11.376Z,101638.50
2018-05-18T09:42:14.719Z,101642.94
2018-05-18T09:44:18.911Z,101635.18
2018-05-18T09:46:22.280Z,101620.62
2018-05-18T09:48:26.345Z,101630.06
2018-05-18T09:50:29.695Z,101630.53
2018-05-18T09:52:33.015Z,101616.03
2018-05-18T09:54:38.270Z,101631.16
2018-05-18T09:56:41.994Z,101628.64
2018-05-18T09:58:45.803Z,101619.38
2018-05-18T10:00:50.066Z,101630.50
2018-05-18T10:02:53.345Z,101637.42
2018-05-18T10:04:56.724Z,101633.48
2018-05-18T10:07:00.695Z,101640.33
2018-05-18T10:09:04.173Z,101642.86
2018-05-18T10:11:07.565Z,101638.27
2018-05-18T10:13:10.873Z,101623.66
2018-05-18T10:15:14.239Z,101644.29
2018-05-18T10:17:17.566Z,101635.50
2018-05-18T10:19:20.893Z,101632.36
2018-05-18T10:21:24.237Z,101634.81
2018-05-18T10:23:27.990Z,101621.11
2018-05-18T10:25:31.360Z,101634.05
2018-05-18T10:27:34.762Z,101635.33
2018-05-18T10:29:38.117Z,101627.70
2018-05-18T10:31:41.438Z,101627.53
2018-05-18T10:33:44.813Z,101610.50
2018-05-18T10:35:48.234Z,101620.50
2018-05-18T10:37:51.563Z,101628.83
2018-05-18T10:39:54.962Z,101634.48
2018-05-18T10:41:58.345Z,101602.41
2018-05-18T10:44:01.718Z,101635.11
2018-05-18T10:46:05.064Z,101619.38
2018-05-18T10:48:08.555Z,101617.11
2018-05-18T10:50:12.950Z,101610.28
2018-05-18T10:52:17.496Z,101583.45
2018-05-18T10:54:20.994Z,101597.86
2018-05-18T10:56:24.612Z,101575.92
2018-05-18T10:58:28.737Z,101613.95
2018-05-18T11:00:32.308Z,101608.36
2018-05-18T11:02:35.660Z,101606.33
2018-05-18T11:04:39.820Z,101611.23
2018-05-18T11:06:43.170Z,101607.05
2018-05-18T11:08:46.506Z,101599.61
2018-05-18T11:12:56.003Z,101572.15
2018-05-18T11:15:00.285Z,101597.13
2018-05-18T11:17:04.508Z,101596.13
2018-05-18T11:19:10.515Z,101582.82
2018-05-18T11:23:29.230Z,101546.31
2018-05-18T11:25:32.802Z,101606.05
2018-05-18T11:27:36.152Z,101573.59
2018-05-18T11:29:39.504Z,101572.11
2018-05-18T11:31:45.972Z,101579.76
2018-05-18T11:33:53.051Z,101584.91
2018-05-18T11:35:56.672Z,101582.41
2018-05-18T11:38:03.875Z,101567.05
2018-05-18T11:40:08.422Z,101573.94
2018-05-18T11:42:11.997Z,101578.72
2018-05-18T11:44:17.631Z,101587.58
2018-05-18T11:46:25.834Z,101572.33
2018-05-18T11:48:32.814Z,101570.94
2018-05-18T11:50:36.327Z,101579.85
2018-05-18T11:52:39.744Z,101575.92
2018-05-18T11:54:43.949Z,101574.32
2018-05-18T11:56:47.460Z,101568.70
2018-05-18T11:58:50.890Z,101572.75
2018-05-18T12:00:54.236Z,101575.84
2018-05-18T12:02:57.664Z,101564.05
2018-05-18T12:05:00.989Z,101571.02
2018-05-18T12:07:04.468Z,101568.73
2018-05-18T12:09:08.692Z,101549.53
2018-05-18T12:11:12.134Z,101563.75
2018-05-18T12:13:15.556Z,101560.83
2018-05-18T12:15:18.913Z,101548.27
2018-05-18T12:17:22.551Z,101558.11
2018-05-18T12:19:25.915Z,101550.03
2018-05-18T12:21:29.369Z,101542.48
2018-05-18T12:23:33.488Z,101553.20
2018-05-18T12:25:37.409Z,101535.73
2018-05-18T12:27:41.042Z,101515.29
2018-05-18T12:29:44.429Z,101542.53
2018-05-18T12:31:47.768Z,101553.31
2018-05-18T12:33:51.142Z,101543.46
2018-05-18T12:35:56.081Z,101535.39
2018-05-18T12:37:59.435Z,101530.42
2018-05-18T12:40:02.804Z,101535.41
2018-05-18T12:42:06.924Z,101529.66
2018-05-18T12:44:11.064Z,101534.66
2018-05-18T12:46:15.189Z,101531.33
2018-05-18T12:48:18.510Z,101527.84
2018-05-18T12:50:22.042Z,101519.80
2018-05-18T12:52:25.376Z,101528.37
2018-05-18T12:54:28.876Z,101512.15
2018-05-18T12:56:32.385Z,101527.39
2018-05-18T12:58:35.910Z,101535.68
2018-05-18T13:00:40.297Z,101507.80
2018-05-18T13:02:43.678Z,101530.64
2018-05-18T13:04:47.925Z,101532.09
2018-05-18T13:06:51.522Z,101527.73
2018-05-18T13:08:55.654Z,101536.52
2018-05-18T13:10:59.004Z,101520.47
2018-05-18T13:13:03.293Z,101526.22
2018-05-18T13:15:06.863Z,101527.05
2018-05-18T13:19:20.254Z,101534.69
2018-05-18T13:21:23.780Z,101523.61
2018-05-18T13:23:27.432Z,101525.14
2018-05-18T13:25:31.811Z,101525.11
2018-05-18T13:27:37.356Z,101522.88
2018-05-18T13:29:42.232Z,101522.36
2018-05-18T13:31:45.607Z,101524.68
2018-05-18T13:33:49.299Z,101512.30
2018-05-18T13:35:52.979Z,101527.77
2018-05-18T13:37:56.624Z,101528.07
2018-05-18T13:40:00.109Z,101516.52
2018-05-18T13:42:03.778Z,101511.09
2018-05-18T13:44:07.586Z,101510.08
2018-05-18T13:46:12.125Z,101506.34
2018-05-18T13:48:16.000Z,101495.88
2018-05-18T13:50:20.396Z,101516.47
2018-05-18T13:52:23.769Z,101472.48
2018-05-18T13:54:27.161Z,101417.45
2018-05-18T13:56:30.649Z,101491.32
2018-05-18T13:58:34.309Z,101496.31
2018-05-18T14:00:37.860Z,101504.81
2018-05-18T14:02:41.381Z,101479.81
2018-05-18T14:04:44.830Z,101508.50
2018-05-18T14:06:50.261Z,101507.25
2018-05-18T14:08:54.357Z,101493.44
2018-05-18T14:10:59.944Z,101500.98
2018-05-18T14:13:03.366Z,101490.22
2018-05-18T14:15:08.679Z,101487.20
2018-05-18T14:17:14.153Z,101488.81
2018-05-18T14:19:18.078Z,101470.39
2018-05-18T14:21:21.471Z,101498.50
2018-05-18T14:23:25.187Z,101471.72
2018-05-18T14:25:28.706Z,101488.53
2018-05-18T14:27:32.985Z,101488.26
2018-05-18T14:29:36.349Z,101488.64
2018-05-18T14:31:42.995Z,101430.08
2018-05-18T14:33:46.394Z,101471.73
2018-05-18T14:35:50.694Z,101498.72
2018-05-18T14:37:54.214Z,101486.24
2018-05-18T14:39:57.566Z,101494.39
2018-05-18T14:42:01.793Z,101495.47
2018-05-18T14:44:05.469Z,101507.23
2018-05-18T14:46:08.885Z,101450.13
2018-05-18T14:48:12.352Z,101499.23
2018-05-18T14:50:15.845Z,101499.78
2018-05-18T14:52:19.199Z,101490.27
2018-05-18T14:54:22.592Z,101485.38
2018-05-18T14:58:43.411Z,101483.16
2018-05-18T15:00:47.727Z,101449.81
2018-05-18T15:02:52.193Z,101381.73
2018-05-18T15:04:55.664Z,101482.38
2018-05-18T15:06:59.696Z,101377.75
2018-05-18T15:09:03.947Z,101386.30
2018-05-18T15:11:07.395Z,101434.38
2018-05-18T15:13:11.243Z,101383.92
2018-05-18T15:15:16.124Z,101411.64
2018-05-18T15:17:19.572Z,101463.23
2018-05-18T15:19:23.059Z,101461.19
2018-05-18T15:21:28.183Z,101466.81
2018-05-18T15:23:32.010Z,101397.29
2018-05-18T15:25:35.861Z,101420.02
2018-05-18T15:27:39.283Z,101415.25
2018-05-18T15:29:42.831Z,101448.42
2018-05-18T15:31:46.891Z,101427.71
2018-05-18T15:33:51.365Z,101461.36
2018-05-18T15:35:54.841Z,101455.91
2018-05-18T15:37:59.078Z,101451.28
2018-05-18T15:40:02.462Z,101438.08
2018-05-18T15:42:06.153Z,101448.88
2018-05-18T15:44:10.392Z,101386.48
2018-05-18T15:46:14.620Z,101464.99
2018-05-18T15:48:18.033Z,101435.03
2018-05-18T15:50:21.374Z,101456.17
2018-05-18T15:52:24.776Z,101448.39
2018-05-18T15:54:28.235Z,101447.89
2018-05-18T15:56:32.186Z,101382.23
2018-05-18T15:58:36.602Z,101467.15
2018-05-18T16:00:41.893Z,101442.81
2018-05-18T16:02:45.450Z,101417.78
2018-05-18T16:04:49.911Z,101449.02
2018-05-18T16:06:53.387Z,101466.81
2018-05-18T16:08:56.792Z,101452.97
2018-05-18T16:11:00.301Z,101302.42
2018-05-18T16:13:03.880Z,101458.70
2018-05-18T16:15:07.451Z,101379.66
2018-05-18T16:17:11.078Z,101421.03
2018-05-18T16:19:14.662Z,101461.45
2018-05-18T16:21:18.134Z,101467.96
2018-05-18T16:23:22.398Z,101455.89
2018-05-18T16:25:25.946Z,101463.20
2018-05-18T16:27:30.303Z,101457.31
2018-05-18T16:29:34.025Z,101463.84
2018-05-18T16:31:37.515Z,101455.33
2018-05-18T16:33:41.002Z,101460.44
2018-05-18T16:35:45.395Z,101465.20
2018-05-18T16:37:52.266Z,101463.88
2018-05-18T16:39:55.769Z,101456.68
2018-05-18T16:41:59.158Z,101461.23
2018-05-18T16:44:03.215Z,101462.38
2018-05-18T16:46:08.001Z,101458.13
2018-05-18T16:48:13.810Z,101348.62
2018-05-18T16:50:18.053Z,101450.02
2018-05-18T16:52:21.427Z,101445.30
2018-05-18T16:54:25.607Z,101455.31
2018-05-18T16:56:29.080Z,101438.53
2018-05-18T16:58:32.476Z,101424.80
2018-05-18T17:00:37.087Z,101403.20
2018-05-18T17:02:40.689Z,101433.80
2018-05-18T17:04:44.753Z,101359.94
2018-05-18T17:06:48.377Z,101454.42
2018-05-18T17:08:52.894Z,101452.75
2018-05-18T17:10:56.588Z,101420.23
2018-05-18T17:13:00.466Z,101456.50
2018-05-18T17:15:04.316Z,101436.83
2018-05-18T17:17:07.685Z,101411.65
2018-05-18T17:19:11.131Z,101409.16
2018-05-18T17:21:14.907Z,101408.84
2018-05-18T17:23:18.491Z,101392.77
2018-05-18T17:25:22.103Z,101440.79
2018-05-18T17:27:25.690Z,101462.56
2018-05-18T17:29:29.212Z,101422.72
2018-05-18T17:31:32.768Z,101454.34
2018-05-18T17:33:36.288Z,101426.23
2018-05-18T17:35:39.651Z,101454.77
2018-05-18T17:37:43.369Z,101448.68
2018-05-18T17:39:47.234Z,101443.95
2018-05-18T17:41:50.867Z,101444.45
2018-05-18T17:43:55.079Z,101403.89
2018-05-18T17:45:58.653Z,101315.99
2018-05-18T17:48:02.605Z,101336.27
2018-05-18T17:50:06.803Z,101439.85
2018-05-18T17:52:10.220Z,101453.86
2018-05-18T17:54:13.770Z,101464.06
2018-05-18T17:56:17.988Z,101398.62
2018-05-18T17:58:21.356Z,101465.23
2018-05-18T18:00:24.792Z,101460.16
2018-05-18T18:04:35.070Z,101459.13
2018-05-18T18:06:38.478Z,101460.73
2018-05-18T18:08:41.927Z,101461.69
2018-05-18T18:10:45.324Z,101469.95
2018-05-18T18:12:48.739Z,101464.06
2018-05-18T18:14:52.930Z,101462.41
2018-05-18T18:16:56.380Z,101458.41
2018-05-18T18:18:59.938Z,101459.23
2018-05-18T18:21:03.483Z,101464.80
2018-05-18T18:23:07.847Z,101464.47
2018-05-18T18:25:12.120Z,101456.69
2018-05-18T18:27:16.474Z,101455.16
2018-05-18T18:29:20.049Z,101461.98
2018-05-18T18:31:23.530Z,101462.50
2018-05-18T18:33:27.807Z,101446.73
2018-05-18T18:35:31.326Z,101451.21
2018-05-18T18:37:35.081Z,101425.03
2018-05-18T18:39:39.219Z,101445.10
2018-05-18T18:41:43.498Z,101444.26
2018-05-18T18:43:47.342Z,101412.48
2018-05-18T18:45:50.968Z,101330.17
2018-05-18T18:47:54.498Z,101380.26
2018-05-18T18:49:58.058Z,101431.56
2018-05-18T18:52:02.865Z,101384.38
2018-05-18T18:54:06.698Z,101432.12
2018-05-18T18:56:10.353Z,101455.41
2018-05-18T18:58:13.889Z,101447.57
2018-05-18T19:00:17.350Z,101469.72
2018-05-18T19:02:21.159Z,101299.88
2018-05-18T19:04:24.572Z,101463.63
2018-05-18T19:06:28.026Z,101426.80
2018-05-18T19:08:31.600Z,101423.56
2018-05-18T19:10:35.398Z,101459.58
2018-05-18T19:12:38.973Z,101440.77
2018-05-18T19:14:42.645Z,101470.65
2018-05-18T19:16:46.014Z,101469.83
2018-05-18T19:18:49.419Z,101476.01
2018-05-18T19:20:52.775Z,101476.35
2018-05-18T19:22:56.974Z,101476.05
2018-05-18T19:25:00.934Z,101483.23
2018-05-18T19:27:04.400Z,101479.44
2018-05-18T19:29:07.970Z,101476.55
2018-05-18T19:31:11.503Z,101480.12
2018-05-18T19:33:14.925Z,101464.41
2018-05-18T19:35:18.398Z,101474.75
2018-05-18T19:37:21.844Z,101463.66
2018-05-18T19:39:25.321Z,101476.79
2018-05-18T19:41:28.943Z,101480.70
2018-05-18T19:43:32.418Z,101489.88
2018-05-18T19:45:35.952Z,101492.76
2018-05-18T19:47:39.584Z,101485.92
2018-05-18T19:49:43.115Z,101480.85
2018-05-18T19:51:46.687Z,101494.06
2018-05-18T19:53:50.049Z,101495.34
2018-05-18T19:55:53.454Z,101491.63
2018-05-18T19:57:56.892Z,101488.80
2018-05-18T20:00:00.321Z,101485.82
2018-05-18T20:02:03.702Z,101483.14
2018-05-18T20:04:07.045Z,101484.06
2018-05-18T20:06:10.434Z,101485.38
2018-05-18T20:08:14.061Z,101491.27
2018-05-18T20:10:17.558Z,101488.11
2018-05-18T20:12:21.171Z,101496.45
2018-05-18T20:14:24.508Z,101493.48
2018-05-18T20:16:30.569Z,101500.20
2018-05-18T20:18:34.182Z,101495.09
2018-05-18T20:22:34.622Z,101494.53
2018-05-18T20:24:38.108Z,101502.08
2018-05-18T20:26:41.939Z,101501.03
2018-05-18T20:28:45.582Z,101496.84
2018-05-18T20:30:50.273Z,101497.20
2018-05-18T20:32:54.734Z,101494.30
2018-05-18T20:34:58.482Z,101496.39
2018-05-18T20:37:04.870Z,101504.98
2018-05-18T20:39:12.892Z,101495.22
2018-05-18T20:41:17.551Z,101512.37
2018-05-18T20:43:21.636Z,101506.38
2018-05-18T20:45:25.443Z,101505.30
2018-05-18T20:47:28.886Z,101482.94
2018-05-18T20:49:34.431Z,101516.84
2018-05-18T20:51:38.725Z,101482.42
2018-05-18T20:53:43.596Z,101511.52
2018-05-18T20:55:47.419Z,101505.86
2018-05-18T20:57:52.601Z,101478.11
2018-05-18T20:59:56.913Z,101412.38
2018-05-18T21:02:04.604Z,101492.16
2018-05-18T21:04:09.263Z,101460.98
2018-05-18T21:06:14.855Z,101508.91
2018-05-18T21:08:19.081Z,101523.89
2018-05-18T21:10:24.290Z,101518.03
2018-05-18T21:12:27.924Z,101508.69
2018-05-18T21:14:38.167Z,101512.16
2018-05-18T21:16:41.592Z,101530.87
2018-05-18T21:18:44.952Z,101531.77
2018-05-18T21:20:48.388Z,101526.94
2018-05-18T21:22:51.864Z,101520.42
2018-05-18T21:24:55.220Z,101535.77
2018-05-18T21:26:58.769Z,101530.45
2018-05-18T21:29:02.256Z,101535.20
2018-05-18T21:31:10.530Z,101518.84
2018-05-18T21:33:14.415Z,101528.09
2018-05-18T21:35:18.136Z,101531.91
2018-05-18T21:37:21.671Z,101525.48
2018-05-18T21:39:25.036Z,101497.61
2018-05-18T21:41:28.521Z,101534.45
2018-05-18T21:43:32.193Z,101534.31
2018-05-18T21:45:37.834Z,101527.50
2018-05-18T21:47:42.355Z,101538.35
2018-05-18T21:49:47.565Z,101545.55
2018-05-18T21:51:51.636Z,101541.77
2018-05-18T21:53:57.251Z,101540.61
2018-05-18T21:56:01.120Z,101543.55
2018-05-18T21:58:05.744Z,101551.47
2018-05-18T22:00:09.599Z,101549.34
2018-05-18T22:02:13.298Z,101540.89
2018-05-18T22:04:18.428Z,101551.11
2018-05-18T22:06:21.835Z,101549.82
2018-05-18T22:08:26.313Z,101548.84
2018-05-18T22:10:29.630Z,101551.99
2018-05-18T22:12:32.973Z,101556.09
2018-05-18T22:14:36.447Z,101555.05
2018-05-18T22:16:40.045Z,101553.85
2018-05-18T22:18:44.206Z,101560.52
2018-05-18T22:20:47.582Z,101539.55
2018-05-18T22:22:51.923Z,101545.47
2018-05-18T22:24:56.094Z,101554.97
2018-05-18T22:26:59.502Z,101542.02
2018-05-18T22:29:03.171Z,101540.36
2018-05-18T22:33:18.910Z,101549.58
2018-05-18T22:35:22.223Z,101544.77
2018-05-18T22:37:25.713Z,101553.28
2018-05-18T22:39:30.057Z,101549.25
2018-05-18T22:41:33.373Z,101549.20
2018-05-18T22:43:36.690Z,101545.64
2018-05-18T22:45:40.024Z,101552.09
2018-05-18T22:47:43.330Z,101547.39
2018-05-18T22:49:47.816Z,101547.98
2018-05-18T22:51:51.163Z,101543.80
2018-05-18T22:53:55.245Z,101552.67
2018-05-18T22:55:58.574Z,101555.58
2018-05-18T22:58:02.466Z,101551.27
2018-05-18T23:00:05.940Z,101551.44
2018-05-18T23:02:10.793Z,101551.59
2018-05-18T23:04:14.910Z,101551.87
2018-05-18T23:06:18.226Z,101556.34
2018-05-18T23:08:21.535Z,101551.48
2018-05-18T23:10:25.098Z,101551.11
2018-05-18T23:12:29.858Z,101548.64
2018-05-18T23:14:33.461Z,101547.29
2018-05-18T23:16:36.875Z,101534.50
2018-05-18T23:18:43.021Z,101554.34
2018-05-18T23:20:46.439Z,101547.75
2018-05-18T23:22:49.905Z,101548.31
2018-05-18T23:24:54.041Z,101536.55
2018-05-18T23:26:57.339Z,101554.31
2018-05-18T23:29:00.659Z,101549.01
2018-05-18T23:31:04.182Z,101489.81
2018-05-18T23:33:08.187Z,101543.41
2018-05-18T23:35:11.673Z,101540.46
2018-05-18T23:37:14.987Z,101552.47
2018-05-18T23:39:19.044Z,101546.75
2018-05-18T23:41:22.357Z,101543.77
2018-05-18T23:43:25.729Z,101535.81
2018-05-18T23:45:29.473Z,101548.34
2018-05-18T23:47:32.791Z,101544.87